createdAt,value
2022-11-02T07:59:58.901Z,2.22
2022-11-02T08:01:04.531Z,2.45
2022-11-02T08:06:39.086Z,2.03
2022-11-02T08:07:40.449Z,1.80
2022-11-02T08:19:31.005Z,5.80
2022-11-02T08:36:40.095Z,2.28
2022-11-02T08:44:54.132Z,1.83
2022-11-02T08:46:16.465Z,2.58
2022-11-02T08:47:18.900Z,1.60
2022-11-02T10:31:51.847Z,1.60
2022-11-02T10:33:58.132Z,1.40
2022-11-02T10:35:30.002Z,2.30
2022-11-02T10:36:31.103Z,1.45
2022-11-02T10:37:45.392Z,1.83
2022-11-02T10:39:08.608Z,2.58
2022-11-02T10:40:32.022Z,1.80
2022-11-02T10:42:00.987Z,2.00
2022-11-02T10:43:18.713Z,3.17
2022-11-02T10:44:35.235Z,2.03
2022-11-02T10:45:37.619Z,1.75
2022-11-02T10:46:53.868Z,2.60
2022-11-02T10:48:19.417Z,2.22
2022-11-02T10:49:39.889Z,1.55
2022-11-02T10:51:03.478Z,1.95
2022-11-02T10:52:05.319Z,2.25
2022-11-02T10:53:39.330Z,2.50
2022-11-02T10:54:34.686Z,2.03
2022-11-02T10:55:51.526Z,2.20
2022-11-02T10:56:52.947Z,2.10
2022-11-02T10:57:57.499Z,3.50
2022-11-02T10:58:58.881Z,1.80
2022-11-02T11:00:32.930Z,2.28
2022-11-02T11:01:34.632Z,2.63
2022-11-02T11:02:36.111Z,1.70
2022-11-02T11:04:03.577Z,1.58
2022-11-02T11:05:14.344Z,1.45
2022-11-02T11:06:15.909Z,1.40
2022-11-02T11:07:24.861Z,1.92
2022-11-02T11:08:44.599Z,1.63
2022-11-02T11:09:50.708Z,3.75
2022-11-02T11:10:52.114Z,1.80
2022-11-02T11:12:03.027Z,2.15
2022-11-02T11:13:05.665Z,1.40
2022-11-02T11:15:52.703Z,2.15
2022-11-02T11:19:50.487Z,1.92
2022-11-02T11:20:55.440Z,2.08
2022-11-02T11:21:56.985Z,1.80
2022-11-02T11:23:24.573Z,2.50
2022-11-02T11:24:31.466Z,2.20
2022-11-02T11:25:33.073Z,2.55
2022-11-02T11:26:34.438Z,1.90
2022-11-02T11:27:45.474Z,2.03
2022-11-02T11:28:57.036Z,2.03
2022-11-02T11:29:59.218Z,1.88
2022-11-02T11:31:16.216Z,1.92
2022-11-02T11:32:20.603Z,1.88
2022-11-02T11:33:22.898Z,1.90
2022-11-02T11:34:31.324Z,1.55
2022-11-02T11:35:39.047Z,2.67
2022-11-02T11:36:40.590Z,1.95
2022-11-02T11:37:54.810Z,1.90
2022-11-02T11:39:00.407Z,2.00
2022-11-02T11:40:16.603Z,2.70
2022-11-02T11:41:18.410Z,2.20
2022-11-02T11:42:23.614Z,1.60
2022-11-02T11:43:30.269Z,2.25
2022-11-02T11:44:32.454Z,1.98
2022-11-02T11:45:34.103Z,2.58
2022-11-02T11:46:45.123Z,2.30
2022-11-02T11:47:52.768Z,2.40
2022-11-02T11:48:57.626Z,1.38
2022-11-02T11:50:09.064Z,2.00
2022-11-02T11:51:35.036Z,1.70
2022-11-02T11:52:36.615Z,2.25
2022-11-02T11:53:38.724Z,2.17
2022-11-02T11:54:40.111Z,2.22
2022-11-02T11:55:50.643Z,1.63
2022-11-02T11:56:57.656Z,3.10
2022-11-02T11:58:20.763Z,1.90
2022-11-02T11:59:46.518Z,1.70
2022-11-02T12:01:12.167Z,2.05
2022-11-02T12:02:43.869Z,2.30
2022-11-02T12:04:00.757Z,1.85
2022-11-02T12:05:17.459Z,1.77
2022-11-02T12:06:18.768Z,2.33
2022-11-02T12:07:41.698Z,1.85
2022-11-02T12:08:45.819Z,1.83
2022-11-02T12:10:01.654Z,2.50
2022-11-02T12:11:47.739Z,1.75
2022-11-02T12:13:17.336Z,1.45
2022-11-02T12:14:38.083Z,2.50
2022-11-02T12:16:01.066Z,1.80
2022-11-02T12:17:08.535Z,2.40
2022-11-02T12:18:28.955Z,2.05
2022-11-02T12:19:54.472Z,2.13
2022-11-02T12:21:05.160Z,2.00
2022-11-02T12:22:17.182Z,1.88
2022-11-02T12:23:25.663Z,1.80
2022-11-02T12:24:41.279Z,2.38
2022-11-02T12:26:06.777Z,3.08
2022-11-02T12:27:26.931Z,1.75
2022-11-02T12:28:37.681Z,2.20
2022-11-02T12:30:02.052Z,1.80
2022-11-02T12:31:38.670Z,1.90
2022-11-02T12:33:04.304Z,7.40
2022-11-02T12:34:27.383Z,2.05
2022-11-02T12:35:44.482Z,2.20
2022-11-02T12:37:35.312Z,2.20
2022-11-02T12:38:49.910Z,1.58
2022-11-02T12:40:09.301Z,2.45
2022-11-02T12:41:13.817Z,1.80
2022-11-02T12:42:24.373Z,2.00
2022-11-02T12:43:32.103Z,1.60
2022-11-02T12:44:56.660Z,2.03
2022-11-02T12:46:26.239Z,2.08
2022-11-02T12:47:56.274Z,1.90
2022-11-02T12:49:36.050Z,1.60
2022-11-02T12:50:57.644Z,1.85
2022-11-02T12:52:05.188Z,2.47
2022-11-02T12:53:31.626Z,2.65
2022-11-02T12:54:45.083Z,8.63
2022-11-02T12:55:50.973Z,6.60
2022-11-02T12:56:54.135Z,3.78
2022-11-02T12:58:02.430Z,4.10
2022-11-02T12:59:04.302Z,3.28
2022-11-02T13:00:15.346Z,1.92
2022-11-02T13:01:40.929Z,2.75
2022-11-02T13:02:56.263Z,2.20
2022-11-02T13:04:15.530Z,3.03
2022-11-02T13:05:21.770Z,2.00
2022-11-02T13:06:39.451Z,1.75
2022-11-02T13:07:57.171Z,2.20
2022-11-02T13:09:07.044Z,2.03
2022-11-02T13:10:22.054Z,2.10
2022-11-02T13:11:34.590Z,2.30
2022-11-02T13:12:37.748Z,2.22
2022-11-02T13:13:53.464Z,1.90
2022-11-02T13:14:57.807Z,2.55
2022-11-02T13:16:00.633Z,1.98
2022-11-02T13:17:21.331Z,2.15
2022-11-02T13:18:31.996Z,1.88
2022-11-02T13:19:42.054Z,2.30
2022-11-02T13:20:50.867Z,2.45
2022-11-02T13:21:56.179Z,2.25
2022-11-02T13:23:04.615Z,2.55
2022-11-02T13:24:15.414Z,1.83
2022-11-02T13:25:27.478Z,1.40
2022-11-02T13:26:37.876Z,1.95
2022-11-02T13:27:47.639Z,2.53
2022-11-02T13:28:54.082Z,1.75
2022-11-02T13:30:00.419Z,1.67
2022-11-02T13:31:12.744Z,1.70
2022-11-02T13:32:34.679Z,1.65
2022-11-02T13:33:49.447Z,2.33
2022-11-02T13:34:53.931Z,2.05
2022-11-02T13:35:55.315Z,2.22
2022-11-02T13:36:56.979Z,2.00
2022-11-02T13:38:20.759Z,2.70
2022-11-02T13:39:36.994Z,2.30
2022-11-02T13:41:09.928Z,2.40
2022-11-02T13:42:33.555Z,1.60
2022-11-02T13:44:02.839Z,2.20
2022-11-02T13:45:19.845Z,2.03
2022-11-02T13:46:39.813Z,1.88
2022-11-02T13:48:09.053Z,2.55
2022-11-02T13:49:24.204Z,2.22
2022-11-02T13:50:27.638Z,2.00
2022-11-02T13:51:40.632Z,2.30
2022-11-02T13:52:48.143Z,2.22
2022-11-02T13:53:58.727Z,2.67
2022-11-02T13:55:02.691Z,2.15
2022-11-02T13:56:21.083Z,2.35
2022-11-02T13:57:42.918Z,1.60
2022-11-02T13:58:49.001Z,1.48
2022-11-02T13:59:50.849Z,2.50
2022-11-02T14:00:58.403Z,2.35
2022-11-02T14:02:03.243Z,2.80
2022-11-02T14:03:17.334Z,2.47
2022-11-02T14:04:20.079Z,2.70
2022-11-02T14:05:32.372Z,2.05
2022-11-02T14:06:45.570Z,1.65
2022-11-02T14:07:47.089Z,1.98
2022-11-02T14:08:52.844Z,1.60
2022-11-02T14:10:20.483Z,2.13
2022-11-02T14:11:26.773Z,1.60
2022-11-02T14:12:30.027Z,2.35
2022-11-02T14:13:59.038Z,2.78
2022-11-02T14:15:12.656Z,2.60
2022-11-02T14:16:43.388Z,2.17
2022-11-02T14:17:53.593Z,2.25
2022-11-02T14:19:19.234Z,1.95
2022-11-02T14:20:36.060Z,2.00
2022-11-02T14:21:42.091Z,1.92
2022-11-02T14:23:09.477Z,1.90
2022-11-02T14:24:32.827Z,1.80
2022-11-02T14:25:47.166Z,2.08
2022-11-02T14:26:56.758Z,2.00
2022-11-02T14:28:18.153Z,1.63
2022-11-02T14:29:42.771Z,2.10
2022-11-02T14:30:45.375Z,1.40
2022-11-02T14:31:57.871Z,2.00
2022-11-02T14:33:09.656Z,1.73
2022-11-02T14:34:28.055Z,2.47
2022-11-02T14:35:40.971Z,2.08
2022-11-02T14:36:42.285Z,2.40
2022-11-02T14:38:27.926Z,2.20
2022-11-02T14:39:52.747Z,2.05
2022-11-02T14:41:16.269Z,1.88
2022-11-02T14:42:31.919Z,2.13
2022-11-02T14:43:52.583Z,1.63
2022-11-02T14:45:07.471Z,1.70
2022-11-02T14:46:39.529Z,1.77
2022-11-02T14:47:41.350Z,1.50
2022-11-02T14:48:52.785Z,1.90
2022-11-02T14:50:06.972Z,2.50
2022-11-02T14:51:17.526Z,1.98
2022-11-02T14:52:28.594Z,1.55
2022-11-02T14:53:34.559Z,2.15
2022-11-02T14:54:54.777Z,2.05
2022-11-02T14:55:56.830Z,2.38
2022-11-02T14:57:05.854Z,2.00
2022-11-02T14:58:20.151Z,1.38
2022-11-02T14:59:46.648Z,1.85
2022-11-02T15:00:48.049Z,1.48
2022-11-02T15:01:59.018Z,2.00
2022-11-02T15:03:01.747Z,1.77
2022-11-02T15:04:07.803Z,2.40
2022-11-02T15:05:22.879Z,2.15
2022-11-02T15:06:27.846Z,1.65
2022-11-02T15:07:34.884Z,2.28
2022-11-02T15:08:42.407Z,2.28
2022-11-02T15:10:01.298Z,1.95
2022-11-02T15:11:40.358Z,2.40
2022-11-02T15:12:44.129Z,1.90
2022-11-02T15:13:47.600Z,1.52
2022-11-02T15:14:49.175Z,1.77
2022-11-02T15:15:50.611Z,1.88
2022-11-02T15:16:54.160Z,1.70
2022-11-02T15:17:58.451Z,1.88
2022-11-02T15:19:37.734Z,2.25
2022-11-02T15:20:45.094Z,1.92
2022-11-02T15:21:49.300Z,1.80
2022-11-02T15:22:56.686Z,1.55
2022-11-02T15:24:16.705Z,2.28
2022-11-02T15:25:41.439Z,2.08
2022-11-02T15:26:49.180Z,1.75
2022-11-02T15:27:55.028Z,2.28
2022-11-02T15:29:01.181Z,1.80
2022-11-02T15:30:05.305Z,2.17
2022-11-02T15:31:16.334Z,2.17
2022-11-02T15:32:22.998Z,2.20
2022-11-02T15:33:44.360Z,1.70
2022-11-02T15:34:48.903Z,2.40
2022-11-02T15:35:53.518Z,1.80
2022-11-02T15:36:57.518Z,1.75
2022-11-02T15:38:16.915Z,2.13
2022-11-02T15:39:19.764Z,1.95
2022-11-02T15:40:27.577Z,1.58
2022-11-02T15:41:40.956Z,2.05
2022-11-02T15:42:52.094Z,2.10
2022-11-02T15:44:05.602Z,1.58
2022-11-02T15:45:34.491Z,2.15
2022-11-02T15:46:44.759Z,1.90
2022-11-02T15:48:08.194Z,2.20
2022-11-02T15:49:26.154Z,1.98
2022-11-02T15:51:02.534Z,1.85
2022-11-02T15:52:13.804Z,2.20
2022-11-02T15:53:30.246Z,1.90
2022-11-02T15:54:53.527Z,2.55
2022-11-02T15:56:03.809Z,2.78
2022-11-02T15:57:36.456Z,2.13
2022-11-02T15:58:53.120Z,1.88
2022-11-02T16:00:10.072Z,1.80
2022-11-02T16:01:18.270Z,2.50
2022-11-02T16:02:34.799Z,2.63
2022-11-02T16:03:36.270Z,1.65
2022-11-02T16:04:42.566Z,2.15
2022-11-02T16:05:46.998Z,1.67
2022-11-02T16:06:52.375Z,1.42
2022-11-02T16:08:11.984Z,2.10
2022-11-02T16:09:33.251Z,2.10
2022-11-02T16:10:35.374Z,2.38
2022-11-02T16:11:36.747Z,3.05
2022-11-02T16:12:38.720Z,2.00
2022-11-02T16:13:55.638Z,2.53
2022-11-02T16:15:18.295Z,2.53
2022-11-02T16:16:20.782Z,3.47
2022-11-02T16:17:26.332Z,1.92
2022-11-02T16:18:38.477Z,3.17
2022-11-02T16:19:39.851Z,3.25
2022-11-02T16:20:45.495Z,3.83
2022-11-02T16:21:48.940Z,2.45
2022-11-02T16:23:01.336Z,3.85
2022-11-02T16:24:02.836Z,2.25
2022-11-02T16:25:16.919Z,2.13
2022-11-02T16:26:22.503Z,2.80
2022-11-02T16:27:23.871Z,2.00
2022-11-02T16:28:32.680Z,3.03
2022-11-02T16:29:36.162Z,2.13
2022-11-02T16:30:37.910Z,3.10
2022-11-02T16:31:40.887Z,2.95
2022-11-02T16:32:42.661Z,3.42
2022-11-02T16:33:47.613Z,2.63
2022-11-02T16:34:49.119Z,3.58
2022-11-02T16:35:50.931Z,2.67
2022-11-02T16:36:52.469Z,2.80
2022-11-02T16:37:54.189Z,3.67
2022-11-02T16:39:07.532Z,2.47
2022-11-02T16:40:16.631Z,3.08
2022-11-02T16:41:18.667Z,2.65
2022-11-02T16:42:24.119Z,2.25
2022-11-02T16:43:26.714Z,2.50
2022-11-02T16:44:33.389Z,2.28
2022-11-02T16:45:42.310Z,2.30
2022-11-02T16:46:58.183Z,3.05
2022-11-02T16:47:59.756Z,2.70
2022-11-02T16:49:20.814Z,2.38
2022-11-02T16:50:26.816Z,1.95
2022-11-02T16:51:28.308Z,2.30
2022-11-02T16:52:35.574Z,2.42
2022-11-02T16:53:37.664Z,2.70
2022-11-02T16:54:43.360Z,2.17
2022-11-02T16:55:47.670Z,2.40
2022-11-02T16:56:51.085Z,2.50
2022-11-02T16:57:52.493Z,2.40
2022-11-02T16:59:02.031Z,3.03
2022-11-02T17:00:07.957Z,2.88
2022-11-02T17:01:20.211Z,2.35
2022-11-02T17:02:36.245Z,2.25
2022-11-02T17:03:37.890Z,3.05
2022-11-02T17:04:45.374Z,2.20
2022-11-02T17:05:49.488Z,2.60
2022-11-02T17:06:54.785Z,2.45
2022-11-02T17:08:09.444Z,2.75
2022-11-02T17:09:23.071Z,3.55
2022-11-02T17:10:27.682Z,2.22
2022-11-02T17:11:29.557Z,3.30
2022-11-02T17:12:45.222Z,2.58
2022-11-02T17:14:00.837Z,2.83
2022-11-02T17:15:11.211Z,3.63
2022-11-02T17:16:12.675Z,2.60
2022-11-02T17:17:23.266Z,2.67
2022-11-02T17:18:27.995Z,3.55
2022-11-02T17:19:44.783Z,2.50
2022-11-02T17:20:46.552Z,2.72
2022-11-02T17:22:05.845Z,3.17
2022-11-02T17:23:09.873Z,3.00
2022-11-02T17:24:32.900Z,4.28
2022-11-02T17:25:39.831Z,3.05
2022-11-02T17:26:41.919Z,3.63
2022-11-02T17:27:43.471Z,3.40
2022-11-02T17:28:46.303Z,2.85
2022-11-02T17:29:48.449Z,2.75
2022-11-02T17:30:52.890Z,3.97
2022-11-02T17:31:57.350Z,2.30
2022-11-02T17:33:14.063Z,4.40
2022-11-02T17:34:19.200Z,5.03
2022-11-02T17:35:26.003Z,4.80
2022-11-02T17:36:29.372Z,4.32
2022-11-02T17:37:32.497Z,8.35
2022-11-02T17:38:34.605Z,29.33
2022-11-02T17:39:36.003Z,14.70
2022-11-02T17:40:38.328Z,7.25
2022-11-02T17:41:58.439Z,10.80
2022-11-02T17:42:59.878Z,3.05
2022-11-02T17:44:01.784Z,5.93
2022-11-02T17:45:23.964Z,4.03
2022-11-02T17:46:25.363Z,10.30
2022-11-02T17:47:27.405Z,11.60
2022-11-02T17:48:29.105Z,4.68
2022-11-02T17:49:32.987Z,3.72
2022-11-02T17:50:36.713Z,4.05
2022-11-02T17:51:38.885Z,3.78
2022-11-02T17:52:41.020Z,3.15
2022-11-02T17:53:44.295Z,2.90
2022-11-02T17:54:45.681Z,3.22
2022-11-02T17:55:50.357Z,3.10
2022-11-02T17:56:51.930Z,3.28
2022-11-02T17:57:57.604Z,3.20
2022-11-02T17:58:59.258Z,2.90
2022-11-02T18:00:00.727Z,3.95
2022-11-02T18:01:04.079Z,4.10
2022-11-02T18:02:12.467Z,5.28
2022-11-02T18:03:17.343Z,4.47
2022-11-02T18:04:18.747Z,4.20
2022-11-02T18:05:23.702Z,4.45
2022-11-02T18:06:25.029Z,3.97
2022-11-02T18:07:26.475Z,5.05
2022-11-02T18:08:28.006Z,4.85
2022-11-02T18:09:30.119Z,4.65
2022-11-02T18:10:34.191Z,6.85
2022-11-02T18:11:35.798Z,8.35
2022-11-02T18:12:37.524Z,9.25
